createdAt,value
2023-07-24T00:01:55.292Z,54.90
2023-07-24T00:04:22.353Z,54.80
2023-07-24T00:06:49.484Z,54.90
2023-07-24T00:09:16.583Z,55.20
2023-07-24T00:11:43.533Z,55.30
2023-07-24T00:14:10.568Z,55.40
2023-07-24T00:16:37.525Z,55.50
2023-07-24T00:19:04.604Z,55.50
2023-07-24T00:21:31.544Z,55.60
2023-07-24T00:23:58.543Z,55.70
2023-07-24T00:26:25.617Z,55.90
2023-07-24T00:28:52.733Z,56.00
2023-07-24T00:31:21.122Z,56.70
2023-07-24T00:33:48.162Z,56.20
2023-07-24T00:36:15.325Z,56.20
2023-07-24T00:38:42.312Z,56.30
2023-07-24T00:41:09.279Z,56.50
2023-07-24T00:43:36.650Z,56.60
2023-07-24T00:46:04.855Z,57.20
2023-07-24T00:48:31.913Z,56.40
2023-07-24T00:50:58.935Z,56.40
2023-07-24T00:53:25.924Z,56.30
2023-07-24T00:55:53.021Z,56.30
2023-07-24T00:58:22.553Z,56.30
2023-07-24T01:00:51.185Z,56.60
2023-07-24T01:03:18.425Z,56.80
2023-07-24T01:05:45.439Z,56.90
2023-07-24T01:08:12.923Z,57.10
2023-07-24T01:10:39.907Z,57.10
2023-07-24T01:13:21.491Z,57.10
2023-07-24T01:16:01.831Z,57.20
2023-07-24T01:18:31.647Z,57.30
2023-07-24T01:20:59.827Z,57.40
2023-07-24T01:24:09.824Z,57.40
2023-07-24T01:26:37.204Z,57.40
2023-07-24T01:29:04.244Z,57.30
2023-07-24T01:31:31.189Z,57.50
2023-07-24T01:33:58.608Z,57.60
2023-07-24T01:36:25.678Z,57.80
2023-07-24T01:38:53.192Z,57.90
2023-07-24T01:41:20.747Z,58.00
2023-07-24T01:43:48.451Z,58.20
2023-07-24T01:46:15.605Z,58.30
2023-07-24T01:48:56.944Z,58.50
2023-07-24T01:51:39.735Z,58.60
2023-07-24T01:54:08.057Z,58.60
2023-07-24T01:56:40.953Z,58.50
2023-07-24T01:59:15.984Z,58.40
2023-07-24T02:01:48.863Z,58.30
2023-07-24T02:04:18.334Z,58.40
2023-07-24T02:06:57.547Z,58.60
2023-07-24T02:09:32.819Z,58.70
2023-07-24T02:19:20.589Z,59.10
2023-07-24T02:21:54.517Z,59.00
2023-07-24T02:24:22.751Z,59.00
2023-07-24T02:26:52.486Z,59.20
2023-07-24T02:29:20.669Z,59.20
2023-07-24T02:31:58.262Z,59.30
2023-07-24T02:34:45.835Z,59.30
2023-07-24T02:37:15.083Z,59.30
2023-07-24T02:39:51.246Z,59.50
2023-07-24T02:42:22.652Z,59.60
2023-07-24T02:44:55.437Z,59.60
2023-07-24T02:47:29.318Z,59.80
2023-07-24T02:50:17.199Z,59.90
2023-07-24T02:52:49.477Z,60.10
2023-07-24T02:55:21.827Z,60.20
2023-07-24T02:57:57.273Z,60.30
2023-07-24T03:00:33.970Z,60.30
2023-07-24T03:03:06.632Z,60.40
2023-07-24T03:05:38.118Z,60.40
2023-07-24T03:08:13.334Z,60.40
2023-07-24T03:10:47.180Z,60.40
2023-07-24T03:13:26.344Z,60.50
2023-07-24T03:16:02.765Z,60.40
2023-07-24T03:18:38.899Z,60.40
2023-07-24T03:21:32.979Z,60.40
2023-07-24T03:24:02.671Z,60.70
2023-07-24T03:26:35.682Z,60.70
2023-07-24T03:29:14.240Z,60.90
2023-07-24T03:31:41.330Z,61.00
2023-07-24T03:34:08.354Z,60.90
2023-07-24T03:36:36.890Z,60.90
2023-07-24T03:39:05.010Z,61.00
2023-07-24T03:41:32.033Z,61.20
2023-07-24T03:43:59.219Z,61.20
2023-07-24T03:46:26.830Z,61.40
2023-07-24T03:48:53.952Z,61.50
2023-07-24T03:51:20.889Z,61.70
2023-07-24T03:53:48.081Z,61.80
2023-07-24T03:56:15.171Z,61.90
2023-07-24T03:58:42.158Z,62.00
2023-07-24T04:01:12.566Z,62.10
2023-07-24T04:03:39.847Z,62.20
2023-07-24T04:06:06.917Z,62.30
2023-07-24T04:08:33.883Z,62.10
2023-07-24T04:11:00.887Z,62.10
2023-07-24T04:13:28.016Z,62.10
2023-07-24T04:15:55.094Z,62.30
2023-07-24T04:18:22.192Z,62.40
2023-07-24T04:20:49.190Z,62.50
2023-07-24T04:23:16.337Z,62.50
2023-07-24T04:25:43.498Z,62.60
2023-07-24T04:28:10.486Z,62.60
2023-07-24T04:30:37.540Z,62.60
2023-07-24T04:33:07.861Z,62.50
2023-07-24T04:35:34.959Z,62.50
2023-07-24T04:38:02.359Z,62.40
2023-07-24T04:40:29.441Z,62.40
2023-07-24T04:42:56.998Z,62.50
2023-07-24T04:45:24.408Z,62.70
2023-07-24T04:47:51.389Z,62.70
2023-07-24T04:50:18.548Z,62.80
2023-07-24T04:52:45.499Z,63.20
2023-07-24T04:55:12.514Z,64.50
2023-07-24T04:57:39.462Z,67.00
2023-07-24T05:00:07.296Z,69.20
2023-07-24T05:02:34.502Z,71.20
2023-07-24T05:05:01.648Z,73.00
2023-07-24T05:07:32.323Z,74.30
2023-07-24T05:10:00.345Z,75.00
2023-07-24T05:12:27.575Z,75.40
2023-07-24T05:14:54.638Z,75.70
2023-07-24T05:17:22.908Z,75.60
2023-07-24T05:19:49.993Z,75.70
2023-07-24T05:22:17.020Z,75.90
2023-07-24T05:24:44.166Z,76.60
2023-07-24T05:27:11.163Z,75.60
2023-07-24T05:29:38.105Z,75.60
2023-07-24T05:32:05.653Z,76.00
2023-07-24T05:34:32.681Z,76.60
2023-07-24T05:36:59.714Z,76.70
2023-07-24T05:39:26.703Z,77.10
2023-07-24T05:41:53.780Z,77.20
2023-07-24T05:44:20.901Z,77.40
2023-07-24T05:46:47.964Z,77.50
2023-07-24T05:49:17.689Z,77.40
2023-07-24T05:51:47.487Z,78.00
2023-07-24T05:54:18.499Z,76.70
2023-07-24T05:56:47.621Z,76.80
2023-07-24T05:59:16.534Z,76.10
2023-07-24T06:01:54.584Z,75.20
2023-07-24T06:04:29.898Z,74.10
2023-07-24T06:06:58.080Z,72.80
2023-07-24T06:09:28.875Z,71.60
2023-07-24T06:11:56.879Z,70.30
2023-07-24T06:14:28.206Z,69.30
2023-07-24T06:17:03.564Z,68.20
2023-07-24T06:19:42.233Z,67.00
2023-07-24T06:22:12.408Z,65.80
2023-07-24T06:24:41.624Z,64.60
2023-07-24T06:27:11.461Z,63.10
2023-07-24T06:29:45.291Z,61.60
2023-07-24T06:32:19.019Z,60.60
2023-07-24T06:34:46.751Z,59.60
2023-07-24T06:37:23.192Z,59.40
2023-07-24T06:39:52.243Z,59.30
2023-07-24T06:42:20.252Z,59.20
2023-07-24T06:44:48.333Z,59.20
2023-07-24T06:47:21.288Z,59.00
2023-07-24T07:03:53.315Z,57.60
2023-07-24T07:42:18.227Z,62.80
2023-07-24T07:44:46.809Z,63.80
2023-07-24T07:47:13.756Z,64.70
2023-07-24T07:49:42.164Z,65.00
2023-07-24T07:52:09.118Z,65.50
2023-07-24T07:54:36.054Z,66.60
2023-07-24T07:57:02.939Z,68.00
2023-07-24T07:59:29.739Z,69.00
2023-07-24T08:01:56.608Z,69.60
2023-07-24T08:04:23.400Z,70.90
2023-07-24T08:06:50.202Z,72.10
2023-07-24T08:09:18.665Z,73.10
2023-07-24T08:11:45.562Z,73.80
2023-07-24T08:14:12.479Z,74.30
2023-07-24T08:16:39.481Z,74.50
2023-07-24T08:19:06.401Z,74.80
2023-07-24T08:21:33.261Z,75.30
2023-07-24T08:24:01.186Z,75.80
2023-07-24T08:26:28.565Z,75.50
2023-07-24T08:28:55.777Z,75.50
2023-07-24T08:31:24.841Z,75.00
2023-07-24T08:33:51.986Z,75.60
2023-07-24T08:36:18.779Z,75.70
2023-07-24T08:38:45.674Z,75.20
2023-07-24T08:41:14.446Z,74.80
2023-07-24T08:43:44.504Z,74.70
2023-07-24T08:46:11.571Z,74.70
2023-07-24T08:48:40.338Z,74.60
2023-07-24T08:51:10.020Z,75.00
2023-07-24T08:53:39.739Z,77.00
2023-07-24T08:56:08.224Z,78.60
2023-07-24T08:58:35.849Z,79.80
2023-07-24T09:01:05.237Z,80.50
2023-07-24T09:03:33.459Z,81.50
2023-07-24T09:06:05.217Z,82.40
2023-07-24T09:08:40.445Z,82.50
2023-07-24T09:11:09.110Z,82.90
2023-07-24T09:13:43.019Z,83.00
2023-07-24T09:16:10.261Z,83.80
2023-07-24T09:18:44.460Z,83.10
2023-07-24T09:21:14.757Z,83.00
2023-07-24T09:23:44.863Z,84.30
2023-07-24T09:26:11.747Z,87.30
2023-07-24T09:28:38.995Z,88.60
2023-07-24T09:31:06.193Z,88.80
2023-07-24T09:33:42.589Z,89.30
2023-07-24T09:36:10.104Z,90.10
2023-07-24T09:38:38.089Z,90.40
2023-07-24T09:41:06.706Z,90.20
2023-07-24T09:46:07.416Z,91.00
2023-07-24T09:51:05.878Z,91.40
2023-07-24T09:53:45.365Z,91.90
2023-07-24T09:56:12.538Z,92.50
2023-07-24T09:58:40.533Z,92.70
2023-07-24T10:01:09.454Z,92.50
2023-07-24T10:03:42.854Z,92.80
2023-07-24T10:06:15.960Z,93.40
2023-07-24T10:08:43.538Z,93.70
2023-07-24T10:11:13.635Z,93.90
2023-07-24T10:13:41.731Z,94.10
2023-07-24T10:16:09.178Z,94.20
2023-07-24T10:18:42.696Z,94.20
2023-07-24T10:21:11.700Z,94.30
2023-07-24T10:23:43.413Z,94.70
2023-07-24T10:26:11.082Z,95.40
2023-07-24T10:28:42.325Z,95.80
2023-07-24T10:31:21.735Z,97.10
2023-07-24T10:33:49.554Z,97.70
2023-07-24T10:36:23.949Z,97.80
2023-07-24T10:38:55.160Z,97.30
2023-07-24T10:41:22.236Z,96.60
2023-07-24T10:43:52.840Z,95.80
2023-07-24T10:46:21.802Z,95.20
2023-07-24T10:48:51.320Z,94.90
2023-07-24T10:51:18.403Z,95.00
2023-07-24T10:53:48.036Z,95.80
2023-07-24T10:56:16.675Z,95.70
2023-07-24T10:58:43.970Z,95.50
2023-07-24T11:01:15.478Z,95.00
2023-07-24T11:03:43.773Z,94.60
2023-07-24T11:06:21.213Z,93.80
2023-07-24T11:08:57.290Z,92.30
2023-07-24T11:11:36.665Z,92.10
2023-07-24T11:14:04.985Z,92.00
2023-07-24T11:16:34.421Z,92.10
2023-07-24T11:19:01.983Z,91.70
2023-07-24T11:21:30.677Z,91.60
2023-07-24T11:23:58.533Z,91.10
2023-07-24T11:26:27.146Z,91.00
2023-07-24T11:28:54.940Z,90.70
2023-07-24T11:31:26.097Z,90.60
2023-07-24T11:33:54.221Z,90.20
2023-07-24T11:36:21.403Z,89.60
2023-07-24T11:38:49.295Z,89.40
2023-07-24T11:41:18.709Z,90.00
2023-07-24T11:43:51.571Z,90.00
2023-07-24T11:46:30.233Z,88.90
2023-07-24T11:48:59.207Z,88.10
2023-07-24T11:51:28.759Z,87.90
2023-07-24T11:54:10.488Z,88.00
2023-07-24T11:56:37.599Z,87.40
2023-07-24T11:59:15.336Z,86.40
2023-07-24T12:01:46.592Z,85.60
2023-07-24T12:04:14.717Z,85.50
2023-07-24T12:06:41.901Z,84.90
2023-07-24T12:09:09.443Z,84.00
2023-07-24T12:11:46.659Z,83.00
2023-07-24T12:14:16.057Z,82.20
2023-07-24T12:16:43.399Z,81.80
2023-07-24T12:19:10.467Z,81.50
2023-07-24T12:21:37.473Z,80.70
2023-07-24T12:24:04.722Z,80.40
2023-07-24T12:26:31.713Z,79.80
2023-07-24T12:29:00.637Z,78.70
2023-07-24T12:31:28.034Z,82.70
2023-07-24T12:33:55.185Z,85.60
2023-07-24T12:36:22.163Z,88.10
2023-07-24T12:38:49.992Z,89.90
2023-07-24T12:41:16.970Z,90.10
2023-07-24T12:43:45.298Z,89.90
2023-07-24T12:46:12.424Z,90.30
2023-07-24T12:48:39.570Z,90.50
2023-07-24T12:51:06.655Z,90.80
2023-07-24T12:53:37.754Z,90.90
2023-07-24T12:56:14.756Z,91.30
2023-07-24T12:58:41.731Z,91.50
2023-07-24T13:01:09.196Z,91.50
2023-07-24T13:03:36.530Z,91.60
2023-07-24T13:06:03.707Z,91.50
2023-07-24T13:08:30.714Z,91.80
2023-07-24T13:10:57.801Z,92.00
2023-07-24T13:13:24.886Z,92.20
2023-07-24T13:15:51.885Z,92.20
2023-07-24T13:18:28.533Z,92.50
2023-07-24T13:20:57.305Z,92.50
2023-07-24T13:23:24.441Z,92.50
2023-07-24T13:25:56.379Z,92.90
2023-07-24T13:28:23.618Z,93.60
2023-07-24T13:30:50.604Z,93.30
2023-07-24T13:33:17.583Z,93.30
2023-07-24T13:35:44.641Z,92.90
2023-07-24T13:38:12.466Z,92.70
2023-07-24T13:40:39.495Z,92.90
2023-07-24T13:43:06.725Z,92.90
2023-07-24T13:45:33.687Z,92.90
2023-07-24T13:48:00.876Z,93.10
2023-07-24T13:50:28.183Z,93.30
2023-07-24T13:52:55.148Z,93.60
2023-07-24T13:55:22.239Z,94.20
2023-07-24T13:57:49.196Z,94.30
2023-07-24T14:00:16.670Z,93.10
2023-07-24T14:02:43.686Z,92.90
2023-07-24T14:05:10.860Z,93.30
2023-07-24T14:07:37.907Z,93.40
2023-07-24T14:10:05.269Z,93.00
2023-07-24T14:12:32.423Z,92.70
2023-07-24T14:14:59.461Z,93.10
2023-07-24T14:17:26.544Z,93.40
2023-07-24T14:19:53.518Z,92.90
2023-07-24T14:22:20.531Z,92.60
2023-07-24T14:24:48.009Z,92.80
2023-07-24T14:27:15.608Z,92.40
2023-07-24T14:29:42.541Z,92.60
2023-07-24T14:32:09.704Z,91.80
2023-07-24T14:34:36.688Z,90.20
2023-07-24T14:37:03.825Z,87.90
2023-07-24T14:39:30.819Z,82.30
2023-07-24T14:41:57.805Z,79.40
2023-07-24T14:44:24.853Z,75.80
2023-07-24T14:46:51.923Z,71.00
2023-07-24T14:49:18.904Z,67.90
2023-07-24T14:51:46.042Z,64.80
2023-07-24T14:54:13.073Z,62.40
2023-07-24T14:56:52.104Z,61.80
2023-07-24T14:59:24.313Z,62.30
2023-07-24T15:01:51.387Z,63.60
2023-07-24T15:04:18.401Z,63.60
2023-07-24T15:06:45.606Z,63.90
2023-07-24T15:09:12.690Z,64.40
2023-07-24T15:11:39.714Z,66.10
2023-07-24T15:14:06.767Z,66.40
2023-07-24T15:16:34.930Z,66.90
2023-07-24T15:19:01.938Z,67.00
2023-07-24T15:21:29.275Z,67.70
2023-07-24T15:23:56.347Z,68.00
2023-07-24T15:26:23.290Z,68.10
2023-07-24T15:28:50.496Z,67.80
2023-07-24T15:31:17.570Z,67.20
2023-07-24T15:33:44.627Z,66.70
2023-07-24T15:36:11.718Z,65.40
2023-07-24T15:38:38.673Z,64.60
2023-07-24T15:41:05.665Z,64.80
2023-07-24T15:43:33.243Z,65.40
2023-07-24T15:46:00.394Z,64.40
2023-07-24T15:48:27.395Z,64.70
2023-07-24T15:50:54.506Z,64.50
2023-07-24T15:53:21.513Z,64.80
2023-07-24T15:55:48.406Z,64.90
2023-07-24T15:58:15.415Z,65.10
2023-07-24T16:00:42.493Z,65.50
2023-07-24T16:03:09.663Z,65.60
2023-07-24T16:05:36.761Z,65.60
2023-07-24T16:08:03.921Z,66.00
2023-07-24T16:10:32.394Z,65.70
2023-07-24T16:12:59.457Z,65.80
2023-07-24T16:20:26.249Z,65.40
2023-07-24T16:22:53.223Z,65.30
2023-07-24T16:25:20.296Z,65.40
2023-07-24T16:27:47.324Z,65.30
2023-07-24T16:32:49.411Z,65.00
2023-07-24T16:35:21.731Z,64.70
2023-07-24T16:37:55.571Z,64.50
2023-07-24T16:40:22.937Z,64.60
2023-07-24T16:42:51.642Z,64.50
2023-07-24T16:47:53.267Z,64.70
2023-07-24T16:50:20.338Z,64.20
2023-07-24T16:52:47.317Z,64.10
2023-07-24T16:55:15.119Z,64.00
2023-07-24T16:57:42.173Z,64.30
2023-07-24T17:00:09.733Z,64.80
2023-07-24T17:02:38.386Z,65.20
2023-07-24T17:05:05.836Z,65.30
2023-07-24T17:07:32.952Z,65.50
2023-07-24T17:09:59.915Z,65.60
2023-07-24T17:12:26.878Z,65.80
2023-07-24T17:14:53.897Z,66.00
2023-07-24T17:17:20.918Z,66.50
2023-07-24T17:19:48.012Z,66.80
2023-07-24T17:22:15.084Z,67.10
2023-07-24T17:24:42.076Z,66.80
2023-07-24T17:27:12.221Z,66.30
2023-07-24T17:29:39.207Z,66.30
2023-07-24T17:32:06.662Z,66.30
2023-07-24T17:34:33.616Z,66.10
2023-07-24T17:37:00.590Z,65.70
2023-07-24T17:39:27.820Z,65.70
2023-07-24T17:41:54.890Z,65.80
2023-07-24T17:44:21.841Z,66.40
2023-07-24T17:46:48.805Z,66.00
2023-07-24T17:49:15.834Z,65.80
2023-07-24T17:51:42.996Z,65.70
2023-07-24T17:54:09.949Z,65.70
2023-07-24T17:56:36.954Z,65.90
2023-07-24T17:59:03.932Z,66.20
2023-07-24T18:01:31.157Z,66.50
2023-07-24T18:03:58.388Z,66.50
2023-07-24T18:06:25.443Z,66.70
2023-07-24T18:08:52.382Z,66.80
2023-07-24T18:11:19.427Z,67.20
2023-07-24T18:13:46.346Z,67.90
2023-07-24T18:16:13.957Z,68.10
2023-07-24T18:18:40.913Z,68.10
2023-07-24T18:21:09.080Z,68.20
2023-07-24T18:23:36.238Z,68.40
2023-07-24T18:26:03.285Z,68.80
2023-07-24T18:28:30.240Z,69.20
2023-07-24T18:30:57.221Z,69.30
2023-07-24T18:33:24.160Z,69.90
2023-07-24T18:35:54.299Z,70.60
2023-07-24T18:38:21.806Z,70.80
2023-07-24T18:40:48.908Z,71.80
2023-07-24T18:43:16.217Z,71.40
2023-07-24T18:45:43.304Z,71.60
2023-07-24T18:48:12.360Z,71.60
2023-07-24T18:50:39.342Z,71.80
2023-07-24T18:53:06.651Z,71.80
2023-07-24T18:55:33.956Z,72.30
2023-07-24T18:58:00.906Z,72.70
2023-07-24T19:00:27.842Z,73.20
2023-07-24T19:02:54.818Z,73.60
2023-07-24T19:05:21.808Z,74.70
2023-07-24T19:07:48.798Z,74.30
2023-07-24T19:10:15.819Z,74.50
2023-07-24T19:12:42.832Z,74.90
2023-07-24T19:15:10.385Z,75.10
2023-07-24T19:17:41.501Z,75.70
2023-07-24T19:20:10.570Z,75.80
2023-07-24T19:22:38.429Z,75.80
2023-07-24T19:25:06.636Z,75.80
2023-07-24T19:27:34.170Z,76.10
2023-07-24T19:30:03.881Z,76.30
2023-07-24T19:32:31.283Z,76.80
2023-07-24T19:34:58.349Z,77.20
2023-07-24T19:37:25.297Z,77.30
2023-07-24T19:39:52.474Z,77.40
2023-07-24T19:42:19.631Z,77.70
2023-07-24T19:44:46.578Z,78.00
2023-07-24T19:47:13.518Z,78.10
2023-07-24T19:49:41.597Z,78.10
2023-07-24T19:52:08.922Z,78.00
2023-07-24T19:54:36.005Z,78.10
2023-07-24T19:57:03.043Z,78.60
2023-07-24T19:59:30.020Z,79.20
2023-07-24T20:01:57.409Z,80.30
2023-07-24T20:04:24.636Z,80.40
2023-07-24T20:06:52.720Z,80.40
2023-07-24T20:09:19.889Z,80.60
2023-07-24T20:11:49.096Z,81.00
2023-07-24T20:14:19.570Z,81.30
2023-07-24T20:16:46.528Z,81.90
2023-07-24T20:19:13.490Z,81.80
2023-07-24T20:21:42.409Z,82.20
2023-07-24T20:24:13.760Z,82.20
2023-07-24T20:26:41.104Z,82.50
2023-07-24T20:29:08.451Z,82.90
2023-07-24T20:31:35.644Z,83.10
2023-07-24T20:34:02.775Z,83.40
2023-07-24T20:36:29.799Z,83.40
2023-07-24T20:38:56.739Z,83.50
2023-07-24T20:41:23.864Z,83.70
2023-07-24T20:43:51.987Z,83.60
2023-07-24T20:46:20.008Z,83.30
2023-07-24T20:48:47.033Z,82.90
2023-07-24T20:51:22.114Z,82.20
2023-07-24T20:53:49.766Z,81.40
2023-07-24T20:56:18.682Z,80.90
2023-07-24T20:58:45.764Z,80.50
2023-07-24T21:01:12.927Z,80.40
2023-07-24T21:03:40.051Z,80.60
2023-07-24T21:06:07.016Z,80.40
2023-07-24T21:08:33.959Z,80.10
2023-07-24T21:11:00.861Z,80.00
2023-07-24T21:13:28.143Z,80.00
2023-07-24T21:15:55.700Z,80.20
2023-07-24T21:18:22.906Z,80.60
2023-07-24T21:20:49.865Z,80.80
2023-07-24T21:23:16.905Z,81.00
2023-07-24T21:25:54.159Z,81.10
2023-07-24T21:28:22.367Z,81.40
2023-07-24T21:30:49.936Z,82.30
2023-07-24T21:33:17.527Z,81.60
2023-07-24T21:35:44.535Z,81.70
2023-07-24T21:38:13.400Z,81.80
2023-07-24T21:40:41.707Z,81.90
2023-07-24T21:43:08.893Z,82.00
2023-07-24T21:45:36.103Z,81.80
2023-07-24T21:48:05.928Z,82.10
2023-07-24T21:50:33.173Z,82.10
2023-07-24T21:53:00.382Z,82.20
2023-07-24T21:55:27.404Z,82.20
2023-07-24T21:57:56.112Z,81.90
2023-07-24T22:00:25.144Z,81.30
2023-07-24T22:02:52.576Z,80.80
2023-07-24T22:05:19.721Z,80.80
2023-07-24T22:07:46.715Z,80.90
2023-07-24T22:10:13.717Z,81.80
2023-07-24T22:12:40.741Z,81.30
2023-07-24T22:15:08.385Z,81.70
2023-07-24T22:17:35.437Z,81.70
2023-07-24T22:20:04.600Z,81.60
2023-07-24T22:22:31.782Z,81.30
2023-07-24T22:24:58.794Z,81.70
2023-07-24T22:27:27.086Z,81.80
2023-07-24T22:29:54.976Z,82.00
2023-07-24T22:32:22.391Z,82.00
2023-07-24T22:34:50.605Z,81.60
2023-07-24T22:37:18.404Z,81.20
2023-07-24T22:39:45.744Z,81.20
2023-07-24T22:42:12.917Z,81.30
2023-07-24T22:44:40.027Z,81.10
2023-07-24T22:47:07.132Z,81.10
2023-07-24T22:49:34.146Z,81.00
2023-07-24T22:52:01.121Z,80.80
2023-07-24T22:54:28.136Z,80.20
2023-07-24T22:56:55.125Z,79.80
2023-07-24T22:59:26.008Z,79.20
2023-07-24T23:01:55.017Z,79.00
2023-07-24T23:04:25.268Z,79.10
2023-07-24T23:06:54.184Z,79.40
2023-07-24T23:09:24.572Z,79.10
2023-07-24T23:11:51.529Z,79.50
2023-07-24T23:14:18.557Z,79.90
2023-07-24T23:16:45.524Z,80.00
2023-07-24T23:19:12.519Z,80.20
2023-07-24T23:21:39.443Z,80.40
2023-07-24T23:24:06.902Z,80.20
2023-07-24T23:26:33.905Z,80.40
2023-07-24T23:29:00.961Z,80.40
2023-07-24T23:31:28.053Z,80.60
2023-07-24T23:33:55.156Z,80.70
2023-07-24T23:36:22.769Z,80.30
2023-07-24T23:38:49.854Z,80.40
2023-07-24T23:41:16.863Z,80.70
2023-07-24T23:43:43.870Z,80.20
2023-07-24T23:46:12.643Z,79.80
2023-07-24T23:48:40.735Z,79.70
2023-07-24T23:51:21.224Z,79.80
2023-07-24T23:53:49.347Z,79.80
2023-07-24T23:56:16.486Z,79.90
2023-07-24T23:58:44.665Z,79.80
